Time;durP1;ratioP1;P1;durP2;ratioP2;P2;SDS_P1;SDS_P2;PMS_P1;PMS_P2;Temp;Humidity;BMP_temperature;BMP_pressure;BME280_temperature;BME280_humidity;BME280_pressure;Samples;Min_cycle;Max_cycle;Signal;HPM_P1;HPM_P2
2022/07/21 00:02:21;;;;;;;0.05;0.05;;;19.40;99.90;;;;;;5032242;28;20133;-82
2022/07/21 00:04:46;;;;;;;0.43;0.43;;;19.40;99.90;;;;;;5032124;28;20044;-82
2022/07/21 00:07:12;;;;;;;0.95;0.80;;;19.40;99.90;;;;;;5015928;28;20388;-82
2022/07/21 00:09:38;;;;;;;0.50;0.50;;;19.40;99.90;;;;;;5032534;28;20041;-82
2022/07/21 00:12:04;;;;;;;1.13;1.05;;;19.30;99.90;;;;;;5016084;28;20048;-82
2022/07/21 00:14:30;;;;;;;0.38;0.38;;;19.30;99.90;;;;;;5040670;28;20402;-82
2022/07/21 00:16:57;;;;;;;0.30;0.30;;;19.20;99.90;;;;;;5035543;28;20045;-82
2022/07/21 00:19:23;;;;;;;0.47;0.47;;;19.10;99.90;;;;;;5051876;28;20045;-82
2022/07/21 00:21:48;;;;;;;5.13;1.73;;;19.30;99.90;;;;;;5035445;28;20041;-82
2022/07/21 00:24:14;;;;;;;0.45;0.45;;;19.10;99.90;;;;;;5035402;28;20098;-82
2022/07/21 00:26:40;;;;;;;1.00;0.50;;;19.10;99.90;;;;;;5040015;28;20395;-87
2022/07/21 00:29:05;;;;;;;1.35;0.47;;;19.10;99.90;;;;;;5015507;28;20065;-87
2022/07/21 00:31:31;;;;;;;0.20;0.20;;;19.00;99.90;;;;;;5032326;28;20158;-82
2022/07/21 00:33:57;;;;;;;0.45;0.40;;;18.90;99.90;;;;;;5032144;28;20037;-82
2022/07/21 00:36:22;;;;;;;0.47;0.47;;;18.80;99.90;;;;;;5031966;28;20472;-82
2022/07/21 00:38:48;;;;;;;0.40;0.40;;;18.70;99.90;;;;;;5031989;28;20499;-86
2022/07/21 00:41:14;;;;;;;0.38;0.38;;;18.60;99.90;;;;;;5015673;28;20037;-86
2022/07/21 00:43:40;;;;;;;0.77;0.77;;;18.60;99.90;;;;;;5018723;28;20049;-86
2022/07/21 00:46:06;;;;;;;0.45;0.35;;;18.60;99.90;;;;;;5036158;28;20037;-86
2022/07/21 00:48:31;;;;;;;0.60;0.60;;;18.50;99.90;;;;;;5035942;28;20048;-83
2022/07/21 00:50:58;;;;;;;4.13;2.17;;;18.50;99.90;;;;;;5036205;28;20037;-83
2022/07/21 00:53:24;;;;;;;0.30;0.28;;;18.50;99.90;;;;;;5036091;28;20044;-83
2022/07/21 00:55:50;;;;;;;0.13;0.13;;;18.50;99.90;;;;;;5019312;28;20041;-83
2022/07/21 00:58:16;;;;;;;0.75;0.75;;;18.50;99.90;;;;;;4986614;28;20041;-82
2022/07/21 01:00:42;;;;;;;0.10;0.10;;;18.50;99.90;;;;;;5018672;28;20033;-86
2022/07/21 01:03:08;;;;;;;0.93;0.40;;;18.60;99.90;;;;;;5035815;28;20094;-85
2022/07/21 01:05:34;;;;;;;0.10;0.10;;;18.60;99.90;;;;;;5035832;28;20056;-86
2022/07/21 01:08:02;;;;;;;0.00;0.00;;;18.70;99.90;;;;;;5035500;28;20040;-86
2022/07/21 01:10:30;;;;;;;0.55;0.47;;;18.70;99.90;;;;;;5019446;28;20547;-85
2022/07/21 01:12:56;;;;;;;0.32;0.32;;;18.60;99.90;;;;;;5018992;28;20049;-85
2022/07/21 01:15:23;;;;;;;0.10;0.10;;;18.50;99.90;;;;;;5051138;28;20056;-85
2022/07/21 01:17:48;;;;;;;0.35;0.35;;;18.50;99.90;;;;;;5039184;28;20049;-87
2022/07/21 01:20:17;;;;;;;0.50;0.40;;;18.50;99.90;;;;;;5055375;28;20052;-87
2022/07/21 01:22:45;;;;;;;1.83;1.23;;;18.50;99.90;;;;;;5055216;28;20124;-87
2022/07/21 01:25:12;;;;;;;0.30;0.30;;;18.50;99.90;;;;;;5022763;28;20041;-87
2022/07/21 01:27:38;;;;;;;0.20;0.20;;;18.50;99.90;;;;;;5015451;28;20049;-87
2022/07/21 01:30:09;;;;;;;1.65;0.57;;;18.50;99.90;;;;;;5015529;28;20053;-87
2022/07/21 01:32:37;;;;;;;1.40;0.70;;;18.40;99.90;;;;;;4999368;28;20377;-87
2022/07/21 01:35:07;;;;;;;1.08;0.77;;;18.40;99.90;;;;;;5015732;28;20053;-83
2022/07/21 01:37:41;;;;;;;0.98;0.85;;;18.40;99.90;;;;;;4999750;28;20104;-83
2022/07/21 01:42:52;;;;;;;1.33;0.82;;;18.40;99.90;;;;;;5015093;28;20050;-82
2022/07/21 01:45:18;;;;;;;0.75;0.50;;;18.30;99.90;;;;;;5015455;28;20492;-81
2022/07/21 01:47:44;;;;;;;0.85;0.85;;;18.30;99.90;;;;;;4998881;28;20034;-82
2022/07/21 01:50:10;;;;;;;0.28;0.22;;;18.30;99.90;;;;;;5031566;28;20100;-82
2022/07/21 01:52:36;;;;;;;1.20;0.88;;;18.30;99.90;;;;;;5014997;28;20503;-83
2022/07/21 01:55:02;;;;;;;1.20;1.10;;;18.30;99.90;;;;;;4997610;28;20046;-83
2022/07/21 01:57:28;;;;;;;0.55;0.55;;;18.30;99.90;;;;;;5031392;28;20052;-83
2022/07/21 01:59:54;;;;;;;0.45;0.45;;;18.30;99.90;;;;;;5034489;28;20475;-82
2022/07/21 02:02:21;;;;;;;0.38;0.38;;;18.30;99.90;;;;;;5003038;28;20076;-81
2022/07/21 02:04:49;;;;;;;0.52;0.32;;;18.30;99.90;;;;;;5054270;28;20037;-81
2022/07/21 02:07:15;;;;;;;0.30;0.30;;;18.40;99.90;;;;;;5037950;28;20056;-86
2022/07/21 02:09:42;;;;;;;0.00;0.00;;;18.40;99.90;;;;;;5054377;28;20044;-86
2022/07/21 02:12:08;;;;;;;0.35;0.05;;;18.40;99.90;;;;;;5054618;28;20041;-86
2022/07/21 02:14:36;;;;;;;0.50;0.50;;;18.40;99.90;;;;;;5012372;28;20518;-86
2022/07/21 02:17:02;;;;;;;0.25;0.25;;;18.50;99.90;;;;;;5018045;28;20518;-86
2022/07/21 02:19:28;;;;;;;0.30;0.30;;;18.50;99.90;;;;;;5033933;28;20037;-85
2022/07/21 02:21:54;;;;;;;0.50;0.32;;;18.50;99.90;;;;;;5001738;28;20081;-85
2022/07/21 02:24:20;;;;;;;2.10;1.50;;;18.40;99.90;;;;;;5018002;28;20091;-82
2022/07/21 02:26:45;;;;;;;0.30;0.30;;;18.40;99.90;;;;;;5017765;28;20041;-81
2022/07/21 02:29:11;;;;;;;0.68;0.57;;;18.40;99.90;;;;;;5019557;28;20037;-84
2022/07/21 02:31:37;;;;;;;0.20;0.20;;;18.50;99.90;;;;;;5020587;28;20049;-84
2022/07/21 02:34:02;;;;;;;3.72;0.45;;;18.50;99.90;;;;;;5019640;28;20095;-85
2022/07/21 02:36:28;;;;;;;1.95;0.90;;;18.50;99.90;;;;;;5033914;28;20450;-85
2022/07/21 02:38:57;;;;;;;0.40;0.40;;;18.50;99.90;;;;;;5034187;28;20045;-85
2022/07/21 02:41:23;;;;;;;0.75;0.45;;;18.50;99.90;;;;;;5033959;28;20434;-83
2022/07/21 02:43:48;;;;;;;0.88;0.50;;;18.50;99.90;;;;;;5033737;28;20046;-83
2022/07/21 02:46:14;;;;;;;0.32;0.32;;;18.50;99.90;;;;;;5033834;28;20052;-83
2022/07/21 02:48:39;;;;;;;0.20;0.20;;;18.60;99.90;;;;;;5017779;28;20120;-85
2022/07/21 02:51:05;;;;;;;0.35;0.35;;;18.60;99.90;;;;;;5042351;28;20041;-85
2022/07/21 02:53:31;;;;;;;0.50;0.50;;;18.60;99.90;;;;;;5043540;28;20080;-85
2022/07/21 02:55:57;;;;;;;0.30;0.30;;;18.50;99.90;;;;;;5043640;28;20372;-85
2022/07/21 02:58:25;;;;;;;0.43;0.35;;;18.50;99.90;;;;;;5034149;28;20053;-84
2022/07/21 03:00:56;;;;;;;0.43;0.43;;;18.50;99.90;;;;;;5032817;28;20042;-84
2022/07/21 03:03:25;;;;;;;0.45;0.45;;;18.50;99.90;;;;;;5033278;28;20432;-86
2022/07/21 03:05:51;;;;;;;0.55;0.35;;;18.50;99.90;;;;;;5013244;28;20069;-86
2022/07/21 03:08:18;;;;;;;1.75;0.77;;;18.50;99.90;;;;;;4997529;28;20112;-86
2022/07/21 03:10:43;;;;;;;0.38;0.38;;;18.50;99.90;;;;;;4997248;28;20132;-86
2022/07/21 03:13:09;;;;;;;0.20;0.10;;;18.50;99.90;;;;;;5013696;28;20149;-82
2022/07/21 03:15:36;;;;;;;0.10;0.10;;;18.50;99.90;;;;;;5015251;28;20457;-82
2022/07/21 03:18:02;;;;;;;0.82;0.75;;;18.50;99.90;;;;;;5052846;28;20055;-82
2022/07/21 03:20:30;;;;;;;0.52;0.35;;;18.50;99.90;;;;;;5052939;28;20041;-82
2022/07/21 03:22:56;;;;;;;0.38;0.38;;;18.60;99.90;;;;;;5052905;28;20041;-82
2022/07/21 03:25:22;;;;;;;2.30;0.98;;;18.60;99.90;;;;;;5018315;28;20036;-82
2022/07/21 03:27:49;;;;;;;0.57;0.30;;;18.60;99.90;;;;;;5033016;28;20041;-82
2022/07/21 03:30:15;;;;;;;0.35;0.25;;;18.60;99.90;;;;;;5016609;28;20091;-83
2022/07/21 03:32:41;;;;;;;1.00;0.45;;;18.70;99.90;;;;;;5016633;28;20064;-84
2022/07/21 03:35:08;;;;;;;0.47;0.47;;;18.70;99.90;;;;;;5033282;28;20476;-84
2022/07/21 03:37:45;;;;;;;0.70;0.70;;;18.70;99.90;;;;;;5016518;28;20195;-84
2022/07/21 03:40:11;;;;;;;;;;;18.60;99.90;;;;;;5017284;28;20075;-84
2022/07/21 03:42:37;;;;;;;0.20;0.20;;;18.60;99.90;;;;;;5017001;28;19944;-84
2022/07/21 03:45:03;;;;;;;1.23;0.57;;;18.60;99.90;;;;;;5032766;28;20476;-84
2022/07/21 03:47:29;;;;;;;0.88;0.75;;;18.60;99.90;;;;;;5016366;28;20041;-84
2022/07/21 03:49:55;;;;;;;0.32;0.32;;;18.60;99.90;;;;;;5016284;28;20056;-86
2022/07/21 03:52:20;;;;;;;0.80;0.80;;;18.60;99.90;;;;;;5016178;28;20041;-86
2022/07/21 03:54:46;;;;;;;0.35;0.35;;;18.60;99.90;;;;;;5016003;28;20064;-86
2022/07/21 03:57:12;;;;;;;1.58;1.23;;;18.60;99.90;;;;;;5032462;28;20049;-86
2022/07/21 03:59:37;;;;;;;1.85;0.70;;;18.60;99.90;;;;;;5016100;28;20049;-86
2022/07/21 04:02:03;;;;;;;1.58;1.48;;;18.60;99.90;;;;;;5047673;28;20486;-82
2022/07/21 04:04:29;;;;;;;2.55;1.23;;;18.50;99.90;;;;;;5035565;28;20041;-84
2022/07/21 04:06:54;;;;;;;2.17;1.17;;;18.50;99.90;;;;;;5036093;28;20124;-84
2022/07/21 04:09:23;;;;;;;1.08;0.60;;;18.60;99.90;;;;;;5035765;28;20041;-84
2022/07/21 04:11:49;;;;;;;0.40;0.40;;;18.70;99.90;;;;;;5052321;28;20045;-84
2022/07/21 04:14:14;;;;;;;0.70;0.70;;;18.60;99.90;;;;;;5045289;28;20120;-84
2022/07/21 04:16:40;;;;;;;0.40;0.40;;;18.60;99.90;;;;;;5031896;28;20049;-84
2022/07/21 04:19:06;;;;;;;0.90;0.88;;;18.60;99.90;;;;;;5032060;28;20112;-84
2022/07/21 04:21:32;;;;;;;0.55;0.55;;;18.60;99.90;;;;;;5015839;28;20033;-82
2022/07/21 04:23:57;;;;;;;1.08;0.85;;;18.60;99.90;;;;;;5032350;28;20100;-82
2022/07/21 04:26:23;;;;;;;0.50;0.50;;;18.60;99.90;;;;;;5015609;28;20092;-82
2022/07/21 04:28:49;;;;;;;0.55;0.55;;;18.60;99.90;;;;;;5031902;28;20151;-82
2022/07/21 04:31:14;;;;;;;1.25;1.13;;;18.50;99.90;;;;;;5032749;28;20048;-84
2022/07/21 04:33:40;;;;;;;4.68;1.48;;;18.60;99.90;;;;;;5015746;28;20049;-84
2022/07/21 04:36:06;;;;;;;1.08;0.50;;;18.50;99.90;;;;;;5032088;28;20044;-86
2022/07/21 04:38:32;;;;;;;0.55;0.55;;;18.50;99.90;;;;;;5015747;28;20041;-83
2022/07/21 04:40:58;;;;;;;0.40;0.32;;;18.50;99.90;;;;;;5031953;28;20037;-84
2022/07/21 04:43:23;;;;;;;1.00;0.60;;;18.50;99.90;;;;;;5031840;28;20147;-83
2022/07/21 04:45:49;;;;;;;0.55;0.50;;;18.50;99.90;;;;;;5031775;28;20069;-82
2022/07/21 04:48:15;;;;;;;0.25;0.25;;;18.50;99.90;;;;;;5015398;28;20034;-82
2022/07/21 04:50:40;;;;;;;0.17;0.17;;;18.50;99.90;;;;;;5032048;28;20087;-82
2022/07/21 04:53:11;;;;;;;0.38;0.38;;;18.50;99.90;;;;;;5015821;28;20045;-86
2022/07/21 04:55:36;;;;;;;0.40;0.40;;;18.40;99.90;;;;;;5032009;28;20554;-86
2022/07/21 04:58:02;;;;;;;0.47;0.47;;;18.40;99.90;;;;;;5015553;28;20093;-86
2022/07/21 05:00:29;;;;;;;0.65;0.65;;;18.40;99.90;;;;;;5001364;28;20107;-86
2022/07/21 05:02:55;;;;;;;0.85;0.82;;;18.30;99.90;;;;;;5018707;28;20041;-87
2022/07/21 05:05:21;;;;;;;0.65;0.60;;;18.30;99.90;;;;;;5051422;28;20483;-86
2022/07/21 05:07:47;;;;;;;1.48;0.60;;;18.30;99.90;;;;;;5035189;28;20052;-87
2022/07/21 05:10:15;;;;;;;0.85;0.80;;;18.30;99.90;;;;;;5018740;28;20106;-86
2022/07/21 05:12:40;;;;;;;1.35;1.25;;;18.30;99.90;;;;;;5035073;28;20128;-86
2022/07/21 05:15:08;;;;;;;0.38;0.38;;;18.30;99.90;;;;;;5021272;28;20136;-86
2022/07/21 05:17:34;;;;;;;3.03;1.23;;;18.30;99.90;;;;;;5031179;28;20049;-86
2022/07/21 05:20:00;;;;;;;0.55;0.55;;;18.20;99.90;;;;;;5015206;28;20046;-86
2022/07/21 05:22:25;;;;;;;2.60;1.88;;;18.20;99.90;;;;;;5031619;28;20061;-86
2022/07/21 05:24:52;;;;;;;0.30;0.30;;;18.20;99.90;;;;;;5015023;28;20102;-87
2022/07/21 05:27:18;;;;;;;0.65;0.63;;;18.20;99.90;;;;;;5015356;28;20502;-85
2022/07/21 05:29:44;;;;;;;15.35;1.45;;;18.20;99.90;;;;;;5034807;28;20044;-85
2022/07/21 05:32:10;;;;;;;1.05;0.82;;;18.20;99.90;;;;;;5035337;28;20037;-83
2022/07/21 05:34:35;;;;;;;0.20;0.20;;;18.30;99.90;;;;;;5027545;28;20180;-83
2022/07/21 05:37:01;;;;;;;0.73;0.57;;;18.30;99.90;;;;;;5015372;28;20073;-83
2022/07/21 05:39:27;;;;;;;1.38;0.60;;;18.30;99.90;;;;;;4983054;28;20048;-83
2022/07/21 05:41:53;;;;;;;2.05;0.70;;;18.30;99.90;;;;;;5015108;28;20388;-83
2022/07/21 05:44:18;;;;;;;0.68;0.68;;;18.30;99.90;;;;;;5015419;28;20042;-83
2022/07/21 05:46:44;;;;;;;1.08;0.75;;;18.30;99.90;;;;;;5015827;28;20125;-83
2022/07/21 05:49:10;;;;;;;0.75;0.75;;;18.20;99.90;;;;;;5015580;28;20618;-83
2022/07/21 05:51:35;;;;;;;1.17;0.70;;;18.20;99.90;;;;;;5015221;28;20046;-83
2022/07/21 05:54:01;;;;;;;1.35;0.90;;;18.20;99.90;;;;;;5015034;28;20046;-83
2022/07/21 05:56:27;;;;;;;1.63;1.23;;;18.20;99.90;;;;;;5005901;28;20096;-84
2022/07/21 05:58:52;;;;;;;2.75;1.25;;;18.20;99.90;;;;;;5035106;28;20049;-84
2022/07/21 06:01:18;;;;;;;1.55;1.45;;;18.00;99.90;;;;;;5027313;28;20505;-86
2022/07/21 06:03:51;;;;;;;0.65;0.65;;;18.20;99.90;;;;;;5054272;28;20033;-86
2022/07/21 06:06:19;;;;;;;0.20;0.20;;;18.20;99.90;;;;;;5021651;28;20033;-87
2022/07/21 06:08:47;;;;;;;0.28;0.28;;;18.20;99.90;;;;;;5037810;28;20048;-86
2022/07/21 06:11:15;;;;;;;1.70;1.55;;;18.20;99.90;;;;;;5021488;28;20044;-86
2022/07/21 06:13:41;;;;;;;0.70;0.70;;;18.20;99.90;;;;;;5052611;28;20063;-87
2022/07/21 06:16:07;;;;;;;0.95;0.90;;;18.30;99.90;;;;;;5018683;28;20056;-87
2022/07/21 06:18:33;;;;;;;0.32;0.32;;;18.30;99.90;;;;;;5018056;28;20412;-86
2022/07/21 06:21:00;;;;;;;0.52;0.52;;;18.30;99.90;;;;;;5017791;28;20129;-86
2022/07/21 06:23:26;;;;;;;1.67;0.65;;;18.40;99.90;;;;;;5018299;28;20077;-86
2022/07/21 06:25:53;;;;;;;0.57;0.57;;;18.50;99.90;;;;;;5012338;28;20395;-86
2022/07/21 06:28:19;;;;;;;1.05;0.95;;;18.50;99.90;;;;;;5014371;28;20073;-86
2022/07/21 06:30:45;;;;;;;1.58;1.48;;;18.50;99.90;;;;;;5014516;28;20077;-87
2022/07/21 06:33:11;;;;;;;1.83;0.90;;;18.50;99.90;;;;;;5030709;28;20077;-83
2022/07/21 06:35:37;;;;;;;0.98;0.95;;;18.50;99.90;;;;;;5014614;28;20104;-82
2022/07/21 06:38:03;;;;;;;0.95;0.57;;;18.60;99.90;;;;;;4997705;28;20088;-83
2022/07/21 06:40:29;;;;;;;0.38;0.25;;;18.60;99.90;;;;;;5013307;28;20077;-82
2022/07/21 06:42:55;;;;;;;2.30;1.15;;;18.70;99.90;;;;;;5014012;28;20129;-83
2022/07/21 06:45:21;;;;;;;1.05;0.95;;;18.80;99.90;;;;;;4981554;28;20040;-83
2022/07/21 06:47:47;;;;;;;0.47;0.47;;;18.90;99.90;;;;;;4981776;28;20037;-83
2022/07/21 06:50:13;;;;;;;0.20;0.20;;;19.10;99.90;;;;;;5014123;28;20046;-86
2022/07/21 06:52:39;;;;;;;0.38;0.38;;;19.00;99.90;;;;;;5030330;28;20042;-86
2022/07/21 06:55:07;;;;;;;0.93;0.90;;;19.00;99.90;;;;;;4997819;28;20045;-86
2022/07/21 06:57:36;;;;;;;0.17;0.17;;;19.10;99.90;;;;;;5016883;28;20518;-86
2022/07/21 07:00:04;;;;;;;0.57;0.57;;;19.10;99.90;;;;;;5016418;28;20045;-85
2022/07/21 07:02:30;;;;;;;0.63;0.52;;;19.00;99.90;;;;;;5033412;28;20503;-85
2022/07/21 07:04:56;;;;;;;0.43;0.43;;;19.00;99.90;;;;;;5017173;28;20071;-85
2022/07/21 07:07:21;;;;;;;0.77;0.77;;;19.00;99.90;;;;;;5033383;28;20038;-89
2022/07/21 07:09:47;;;;;;;0.60;0.32;;;19.00;99.90;;;;;;5016708;28;20395;-88
2022/07/21 07:12:13;;;;;;;3.13;2.83;;;19.10;99.90;;;;;;5017140;28;20083;-88
2022/07/21 07:14:39;;;;;;;1.10;1.00;;;19.00;99.90;;;;;;5026025;28;20541;-88
2022/07/21 07:17:04;;;;;;;1.95;1.02;;;19.00;99.90;;;;;;5053288;28;20041;-88
2022/07/21 07:19:30;;;;;;;1.95;0.65;;;19.00;99.90;;;;;;5036700;28;20049;-88
2022/07/21 07:21:56;;;;;;;1.30;0.65;;;18.90;99.90;;;;;;5020058;28;20475;-88
2022/07/21 07:24:22;;;;;;;0.30;0.30;;;18.90;99.90;;;;;;5053235;28;20049;-85
2022/07/21 07:26:48;;;;;;;1.48;1.30;;;18.90;99.90;;;;;;5023175;28;20244;-88
2022/07/21 07:29:14;;;;;;;0.77;0.77;;;18.80;99.90;;;;;;5051637;22;20045;-84
2022/07/21 07:31:40;;;;;;;2.72;1.38;;;18.80;99.90;;;;;;5036206;28;20411;-84
2022/07/21 07:34:06;;;;;;;2.05;1.48;;;18.70;99.90;;;;;;5052602;28;20494;-83
2022/07/21 07:36:32;;;;;;;0.43;0.43;;;18.70;99.90;;;;;;5042964;28;20121;-84
2022/07/21 07:38:58;;;;;;;1.30;1.02;;;18.80;99.90;;;;;;5042743;28;20068;-84
2022/07/21 07:41:26;;;;;;;1.73;0.98;;;18.80;99.90;;;;;;5008472;28;20042;-89
2022/07/21 07:43:52;;;;;;;2.60;1.40;;;18.80;99.90;;;;;;5024394;28;20138;-89
2022/07/21 07:46:18;;;;;;;4.03;1.65;;;18.80;99.90;;;;;;5009943;28;20038;-90
2022/07/21 07:48:45;;;;;;;2.25;1.60;;;18.70;99.90;;;;;;5038716;28;20087;-89
2022/07/21 07:51:11;;;;;;;2.13;0.93;;;18.70;99.90;;;;;;5045953;28;20075;-91
2022/07/21 07:53:38;;;;;;;2.08;0.68;;;18.80;99.90;;;;;;5032743;28;20496;-91
2022/07/21 07:56:04;;;;;;;0.17;0.17;;;18.80;99.90;;;;;;5004372;28;20098;-91
2022/07/21 07:58:30;;;;;;;1.30;1.15;;;18.90;99.90;;;;;;5008387;28;20033;-91
2022/07/21 08:00:56;;;;;;;0.43;0.43;;;18.80;99.90;;;;;;5025072;28;20041;-91
2022/07/21 08:03:23;;;;;;;0.63;0.63;;;18.80;99.90;;;;;;5007235;28;20037;-91
2022/07/21 08:05:48;;;;;;;0.70;0.70;;;18.90;99.90;;;;;;5036215;28;20072;-91
2022/07/21 08:08:15;;;;;;;1.25;0.88;;;19.00;99.90;;;;;;5052391;28;20068;-90
2022/07/21 08:10:41;;;;;;;0.35;0.35;;;19.00;99.90;;;;;;5036296;28;20090;-91
2022/07/21 08:13:08;;;;;;;3.38;2.15;;;19.00;99.90;;;;;;5035944;28;20198;-90
2022/07/21 08:15:34;;;;;;;1.70;1.60;;;19.00;99.90;;;;;;5052600;28;20045;-91
2022/07/21 08:18:00;;;;;;;0.77;0.75;;;18.90;99.90;;;;;;5035928;28;20040;-89
2022/07/21 08:20:26;;;;;;;1.65;0.88;;;18.90;99.90;;;;;;5035441;28;20037;-90
2022/07/21 08:22:52;;;;;;;1.10;0.77;;;18.90;99.90;;;;;;5035729;28;20041;-89
2022/07/21 08:25:18;;;;;;;1.70;0.60;;;19.00;99.90;;;;;;5051031;28;20048;-89
2022/07/21 08:27:43;;;;;;;1.80;1.15;;;19.00;99.90;;;;;;5034933;28;20483;-89
2022/07/21 08:30:10;;;;;;;1.48;1.38;;;19.10;99.90;;;;;;5035527;28;20114;-88
2022/07/21 08:32:36;;;;;;;1.25;0.85;;;19.20;99.90;;;;;;5034800;28;20052;-88
2022/07/21 08:35:01;;;;;;;0.38;0.38;;;19.30;99.90;;;;;;5051131;28;20037;-88
2022/07/21 08:37:27;;;;;;;2.00;0.88;;;19.30;99.90;;;;;;5051500;28;20076;-88
2022/07/21 08:39:53;;;;;;;0.90;0.80;;;19.40;99.90;;;;;;5034578;28;20048;-88
2022/07/21 08:42:18;;;;;;;0.90;0.90;;;19.40;99.90;;;;;;5034853;28;20041;-88
2022/07/21 08:44:44;;;;;;;1.50;0.82;;;19.40;99.90;;;;;;5050953;28;20091;-88
2022/07/21 08:47:10;;;;;;;0.77;0.65;;;19.40;99.90;;;;;;5051176;28;20487;-89
2022/07/21 08:49:36;;;;;;;0.88;0.88;;;19.40;99.90;;;;;;5034443;28;20037;-89
2022/07/21 08:52:05;;;;;;;0.95;0.93;;;19.40;99.90;;;;;;5051347;28;20052;-89
2022/07/21 08:54:32;;;;;;;1.27;1.17;;;19.30;99.90;;;;;;5040647;28;20064;-89
2022/07/21 08:56:58;;;;;;;1.50;0.93;;;19.30;99.90;;;;;;5031170;28;20514;-89
2022/07/21 08:59:23;;;;;;;1.13;1.02;;;19.30;99.90;;;;;;5031234;28;20085;-89
2022/07/21 09:01:49;;;;;;;1.65;1.55;;;19.30;99.90;;;;;;5012077;28;20037;-89
2022/07/21 09:04:25;;;;;;;1.17;0.75;;;19.30;99.90;;;;;;5035941;28;20395;-84
2022/07/21 09:07:03;;;;;;;1.75;1.55;;;19.30;99.90;;;;;;5037795;28;20037;-84
2022/07/21 09:09:31;;;;;;;2.40;0.70;;;19.30;99.90;;;;;;5054422;28;20052;-85
2022/07/21 09:11:58;;;;;;;0.73;0.73;;;19.30;99.90;;;;;;5037952;28;20072;-84
2022/07/21 09:14:32;;;;;;;2.78;1.20;;;19.30;99.90;;;;;;5054049;28;20037;-84
2022/07/21 09:17:02;;;;;;;3.13;2.42;;;19.20;99.90;;;;;;5054527;28;20098;-84
2022/07/21 09:19:35;;;;;;;0.40;0.40;;;19.20;99.90;;;;;;5037680;28;20399;-84
2022/07/21 09:22:07;;;;;;;2.55;1.40;;;19.20;99.90;;;;;;5054044;28;20037;-84
2022/07/21 09:24:40;;;;;;;1.17;1.10;;;19.20;99.90;;;;;;5037084;28;20083;-84
2022/07/21 09:27:17;;;;;;;3.22;2.92;;;19.30;99.90;;;;;;5037476;28;20037;-84
2022/07/21 09:29:49;;;;;;;3.28;3.03;;;19.30;99.90;;;;;;4983107;28;2029609;-84
2022/07/21 09:32:27;;;;;;;2.10;1.92;;;19.40;99.90;;;;;;5038533;28;20040;-84
2022/07/21 09:35:06;;;;;;;1.92;1.50;;;19.30;99.90;;;;;;5054910;28;20499;-84
2022/07/21 09:37:32;;;;;;;2.72;2.03;;;19.30;99.90;;;;;;5055076;28;20106;-90
2022/07/21 09:40:03;;;;;;;0.77;0.75;;;19.40;99.90;;;;;;5055115;28;20041;-90
2022/07/21 09:42:47;;;;;;;3.25;2.03;;;19.50;99.90;;;;;;5038786;28;20045;-91
2022/07/21 09:45:16;;;;;;;2.60;2.35;;;19.50;99.90;;;;;;5055278;28;20044;-91
2022/07/21 09:47:43;;;;;;;2.13;1.58;;;19.50;99.90;;;;;;5055306;28;20145;-90
2022/07/21 09:50:13;;;;;;;4.30;1.90;;;19.50;99.90;;;;;;5055025;28;20053;-90
2022/07/21 09:52:40;;;;;;;3.20;1.88;;;19.50;99.90;;;;;;5055183;28;20052;-91
2022/07/21 09:55:12;;;;;;;1.05;1.00;;;19.50;99.90;;;;;;5054991;28;20049;-88
2022/07/21 09:57:38;;;;;;;2.08;1.48;;;19.50;99.90;;;;;;5054732;28;20037;-89
2022/07/21 10:00:07;;;;;;;0.98;0.95;;;19.50;99.90;;;;;;5020823;28;20171;-89
2022/07/21 10:02:33;;;;;;;1.88;1.65;;;19.60;99.90;;;;;;5037661;28;20124;-88
2022/07/21 10:05:14;;;;;;;0.60;0.60;;;19.70;99.90;;;;;;5037849;28;20517;-89
2022/07/21 10:07:42;;;;;;;0.60;0.60;;;;;;;;;;5038254;28;20037;-88
2022/07/21 10:10:08;;;;;;;0.98;0.73;;;20.20;99.90;;;;;;5037858;28;20507;-83
2022/07/21 10:12:34;;;;;;;1.05;1.00;;;20.40;99.90;;;;;;5037801;28;20045;-84
2022/07/21 10:15:00;;;;;;;0.28;0.28;;;20.50;99.90;;;;;;5019952;28;20124;-84
2022/07/21 10:17:27;;;;;;;0.43;0.40;;;20.50;99.90;;;;;;5037620;28;20045;-84
2022/07/21 10:20:23;;;;;;;0.50;0.50;;;20.60;99.90;;;;;;5037421;28;20076;-84
2022/07/21 10:23:18;;;;;;;0.60;0.60;;;20.50;99.90;;;;;;5054262;28;20037;-84
2022/07/21 10:25:46;;;;;;;0.35;0.30;;;20.30;99.90;;;;;;5053974;28;20171;-84
2022/07/21 10:28:13;;;;;;;1.13;0.77;;;20.20;99.90;;;;;;5054182;28;20044;-88
2022/07/21 10:30:49;;;;;;;1.42;0.70;;;20.10;99.90;;;;;;5054015;28;20407;-89
2022/07/21 10:33:17;;;;;;;0.93;0.68;;;20.20;99.90;;;;;;5054284;28;20063;-88
2022/07/21 10:35:45;;;;;;;0.10;0.10;;;20.30;99.90;;;;;;5054078;28;20144;-87
2022/07/21 10:38:31;;;;;;;0.32;0.25;;;20.30;99.90;;;;;;5035823;28;20047;-88
2022/07/21 10:40:58;;;;;;;;;;;20.20;99.90;;;;;;5037684;28;20157;-88
2022/07/21 10:43:24;;;;;;;0.40;0.40;;;20.10;99.90;;;;;;5037253;28;19917;-87
2022/07/21 10:45:50;;;;;;;0.28;0.28;;;20.10;99.90;;;;;;5037267;28;20044;-87
2022/07/21 10:48:37;;;;;;;0.40;0.40;;;20.10;99.90;;;;;;5037174;28;20040;-87
2022/07/21 10:51:11;;;;;;;1.55;0.63;;;20.10;99.90;;;;;;5037393;28;20040;-87
2022/07/21 10:53:38;;;;;;;0.65;0.65;;;20.00;99.90;;;;;;5053715;28;20051;-88
2022/07/21 10:56:06;;;;;;;0.20;0.20;;;20.10;99.90;;;;;;5037242;28;20391;-87
2022/07/21 10:58:41;;;;;;;0.50;0.50;;;20.20;99.90;;;;;;5037282;28;20048;-87
2022/07/21 11:01:27;;;;;;;0.80;0.70;;;20.20;99.90;;;;;;5052429;28;20028;-88
2022/07/21 11:04:10;;;;;;;0.68;0.68;;;20.30;99.90;;;;;;5019845;28;20187;-88
2022/07/21 11:06:38;;;;;;;0.93;0.80;;;20.40;99.90;;;;;;5053378;28;20049;-88
2022/07/21 11:09:04;;;;;;;0.43;0.43;;;20.50;99.90;;;;;;5053166;28;20617;-88
2022/07/21 11:11:32;;;;;;;1.33;0.75;;;20.50;99.90;;;;;;5036641;28;20131;-88
2022/07/21 11:14:10;;;;;;;0.32;0.30;;;20.60;99.90;;;;;;5036775;28;20091;-88
2022/07/21 11:16:54;;;;;;;1.00;0.85;;;20.70;99.90;;;;;;5036551;28;20422;-87
2022/07/21 11:19:30;;;;;;;0.90;0.73;;;20.90;99.90;;;;;;5036760;28;20094;-87
2022/07/21 11:21:58;;;;;;;1.55;1.05;;;21.10;99.90;;;;;;5036374;28;20049;-87
2022/07/21 11:24:25;;;;;;;1.95;0.43;;;21.20;99.90;;;;;;5036246;28;20079;-87
2022/07/21 11:26:59;;;;;;;0.50;0.50;;;21.20;99.90;;;;;;5036450;28;20098;-87
2022/07/21 11:29:25;;;;;;;0.57;0.43;;;21.30;99.90;;;;;;5036396;28;20053;-87
2022/07/21 11:31:52;;;;;;;0.75;0.50;;;21.50;99.90;;;;;;5036439;28;20064;-87
2022/07/21 11:34:18;;;;;;;0.55;0.55;;;21.60;99.90;;;;;;5036327;28;20037;-87
2022/07/21 11:36:44;;;;;;;0.95;0.90;;;21.90;99.90;;;;;;5053144;28;20486;-87
2022/07/21 11:39:15;;;;;;;0.30;0.30;;;22.10;99.90;;;;;;5053018;28;20399;-87
2022/07/21 11:41:42;;;;;;;0.52;0.52;;;22.30;99.90;;;;;;5052595;28;20479;-87
2022/07/21 11:44:09;;;;;;;2.15;1.58;;;22.40;99.90;;;;;;5036069;28;20041;-87
2022/07/21 11:46:49;;;;;;;1.77;1.25;;;22.40;99.90;;;;;;5052613;28;20076;-87
2022/07/21 11:49:16;;;;;;;0.52;0.35;;;22.00;99.90;;;;;;5052841;28;20396;-87
2022/07/21 11:51:57;;;;;;;0.20;0.20;;;21.70;99.90;;;;;;5036532;28;20041;-87
2022/07/21 11:54:24;;;;;;;0.85;0.30;;;21.50;99.90;;;;;;5035981;28;20044;-88
2022/07/21 11:56:51;;;;;;;0.57;0.57;;;21.20;99.90;;;;;;5036273;28;20087;-88
2022/07/21 11:59:17;;;;;;;0.25;0.25;;;21.10;99.90;;;;;;5052589;28;20048;-87
2022/07/21 12:01:51;;;;;;;0.90;0.70;;;21.10;99.90;;;;;;5051337;28;20044;-88
2022/07/21 12:04:46;;;;;;;0.20;0.20;;;21.10;99.90;;;;;;5019415;28;20045;-88
2022/07/21 12:07:20;;;;;;;0.10;0.10;;;21.20;99.90;;;;;;5035472;28;20398;-88
2022/07/21 12:09:49;;;;;;;0.10;0.10;;;21.40;99.90;;;;;;5052310;28;20458;-88
2022/07/21 12:12:26;;;;;;;0.22;0.22;;;21.50;99.90;;;;;;5052560;28;20049;-88
2022/07/21 12:14:52;;;;;;;0.13;0.13;;;21.60;99.90;;;;;;5035207;28;20045;-88
2022/07/21 12:17:33;;;;;;;0.20;0.20;;;21.70;99.90;;;;;;5052365;28;20041;-87
2022/07/21 12:19:59;;;;;;;0.15;0.15;;;21.80;99.90;;;;;;5035781;28;20077;-88
2022/07/21 12:22:38;;;;;;;0.38;0.20;;;22.00;99.90;;;;;;5019021;28;20155;-88
2022/07/21 12:25:07;;;;;;;0.10;0.10;;;22.20;99.90;;;;;;5035630;28;20175;-87
2022/07/21 12:27:35;;;;;;;0.15;0.15;;;22.40;99.90;;;;;;5052147;28;20391;-87
2022/07/21 12:30:01;;;;;;;0.20;0.20;;;23.00;99.90;;;;;;5051935;28;20565;-87
2022/07/21 12:32:49;;;;;;;0.13;0.13;;;22.40;99.90;;;;;;5035403;28;20048;-88
2022/07/21 12:35:24;;;;;;;0.40;0.35;;;22.40;99.90;;;;;;5035464;28;20044;-88
2022/07/21 12:37:59;;;;;;;0.55;0.55;;;22.30;99.90;;;;;;5034928;28;20029;-88
2022/07/21 12:40:26;;;;;;;0.70;0.38;;;22.30;99.90;;;;;;5035422;28;20441;-87
2022/07/21 12:43:16;;;;;;;2.00;0.75;;;22.30;99.90;;;;;;5051834;28;20041;-87
2022/07/21 12:45:54;;;;;;;0.20;0.20;;;22.30;99.90;;;;;;5051838;28;20069;-88
2022/07/21 12:48:26;;;;;;;0.10;0.10;;;22.30;99.90;;;;;;5051834;28;20033;-88
2022/07/21 12:51:00;;;;;;;0.43;0.43;;;22.30;99.90;;;;;;5035409;28;20036;-87
2022/07/21 12:53:27;;;;;;;0.10;0.10;;;22.30;99.90;;;;;;5051937;28;20399;-87
2022/07/21 12:55:52;;;;;;;0.20;0.15;;;22.20;99.90;;;;;;5035083;28;20053;-88